To NAV CANADA Home Page Login to a new session Search on AWWS site Feedback and Comments Disclaimer Vers la page française équivalente Tips FAQ What's new on the site To the Forecasts and Observations / NOTAM section To "File a Flight Plan" website Publications and other links Update of the User's profile FIC Telephone Numbers My Weather Data Folder Route Weather Data Regional Weather Data Local Weather Data To the Forecasts and Observations / NOTAM section
Request Generated 06/26/2017 at 22:31:02 UTC . Weather information available at that time is displayed.

METAR/TAF

ISLAND LAKE/MB    

METAR CYIV 262200Z 28012G17KT 15SM BKN100 BKN220 23/06 A2987 RMK
AC5CI2 SLP122 DENSITY ALT 2000FT=
METAR CYIV 262100Z 28008KT 15SM OVC100 21/09 A2989 RMK AC8 SLP129
DENSITY ALT 1800FT=
METAR CYIV 262000Z 29007KT 15SM BKN100 BKN220 22/08 A2992 RMK AC7CI1
CI TR SLP138 DENSITY ALT 1800FT=

TAF CYIV 261838Z 2619/2707 27010KT P6SM BKN100 TEMPO 2619/2701 P6SM
-SHRA
FM270100 25010KT P6SM SCT080
RMK NXT FCST BY 270100Z=
Your time UTC time
Weather data provided by Environment Canada and NAV CANADA